sensor_id;sensor_type;location;lat;lon;timestamp;pressure;altitude;pressure_sealevel;temperature;humidity
19761;BME280;10039;42.632;23.408;2023-12-20T00:01:16;95393.13;;;1.04;77.96
19761;BME280;10039;42.632;23.408;2023-12-20T00:03:42;95355.34;;;0.93;78.67
19761;BME280;10039;42.632;23.408;2023-12-20T00:06:08;95394.66;;;1.20;79.15
19761;BME280;10039;42.632;23.408;2023-12-20T00:08:33;95365.59;;;1.13;79.64
19761;BME280;10039;42.632;23.408;2023-12-20T00:11:02;95388.53;;;1.32;79.00
19761;BME280;10039;42.632;23.408;2023-12-20T00:13:27;95383.34;;;1.35;79.31
19761;BME280;10039;42.632;23.408;2023-12-20T00:15:53;95361.16;;;1.17;78.90
19761;BME280;10039;42.632;23.408;2023-12-20T00:18:18;95379.88;;;1.16;79.03
19761;BME280;10039;42.632;23.408;2023-12-20T00:20:44;95388.81;;;0.81;79.10
19761;BME280;10039;42.632;23.408;2023-12-20T00:23:09;95379.75;;;0.63;79.79
19761;BME280;10039;42.632;23.408;2023-12-20T00:25:35;95381.16;;;0.60;80.59
19761;BME280;10039;42.632;23.408;2023-12-20T00:28:00;95368.16;;;0.64;80.60
19761;BME280;10039;42.632;23.408;2023-12-20T00:30:26;95366.34;;;0.83;80.97
19761;BME280;10039;42.632;23.408;2023-12-20T00:32:51;95363.66;;;0.95;80.99
19761;BME280;10039;42.632;23.408;2023-12-20T00:35:17;95340.44;;;0.97;80.83
19761;BME280;10039;42.632;23.408;2023-12-20T00:37:43;95351.63;;;0.94;80.33
19761;BME280;10039;42.632;23.408;2023-12-20T00:40:09;95353.63;;;0.85;80.13
19761;BME280;10039;42.632;23.408;2023-12-20T00:42:35;95350.88;;;0.78;80.21
19761;BME280;10039;42.632;23.408;2023-12-20T00:45:04;95322.06;;;0.51;80.76
19761;BME280;10039;42.632;23.408;2023-12-20T00:47:30;95338.31;;;0.72;81.40
19761;BME280;10039;42.632;23.408;2023-12-20T00:49:57;95327.31;;;0.66;81.68
19761;BME280;10039;42.632;23.408;2023-12-20T00:52:22;95293.44;;;0.61;81.45
19761;BME280;10039;42.632;23.408;2023-12-20T00:54:48;95320.28;;;0.70;81.33
19761;BME280;10039;42.632;23.408;2023-12-20T00:57:14;95342.81;;;0.87;81.44
19761;BME280;10039;42.632;23.408;2023-12-20T00:59:39;95328.34;;;0.77;81.64
19761;BME280;10039;42.632;23.408;2023-12-20T01:02:05;95333.22;;;0.94;81.66
19761;BME280;10039;42.632;23.408;2023-12-20T01:04:30;95336.69;;;0.98;81.30
19761;BME280;10039;42.632;23.408;2023-12-20T01:06:56;95340.75;;;0.80;81.46
19761;BME280;10039;42.632;23.408;2023-12-20T01:09:21;95318.50;;;0.74;81.51
19761;BME280;10039;42.632;23.408;2023-12-20T01:11:51;95325.19;;;0.72;81.10
19761;BME280;10039;42.632;23.408;2023-12-20T01:14:17;95327.06;;;0.40;80.82
19761;BME280;10039;42.632;23.408;2023-12-20T01:16:42;95306.38;;;0.23;80.67
19761;BME280;10039;42.632;23.408;2023-12-20T01:19:08;95323.56;;;0.36;81.02
19761;BME280;10039;42.632;23.408;2023-12-20T01:21:33;95317.56;;;0.51;81.64
19761;BME280;10039;42.632;23.408;2023-12-20T01:23:59;95314.00;;;0.59;81.84
19761;BME280;10039;42.632;23.408;2023-12-20T01:26:24;95299.97;;;0.52;81.24
19761;BME280;10039;42.632;23.408;2023-12-20T01:28:50;95308.75;;;0.59;80.50
19761;BME280;10039;42.632;23.408;2023-12-20T01:31:15;95268.13;;;0.22;79.90
19761;BME280;10039;42.632;23.408;2023-12-20T01:33:41;95305.22;;;0.36;79.80
19761;BME280;10039;42.632;23.408;2023-12-20T01:36:06;95305.28;;;0.40;80.39
19761;BME280;10039;42.632;23.408;2023-12-20T01:38:32;95288.78;;;0.39;80.23
19761;BME280;10039;42.632;23.408;2023-12-20T01:40:57;95290.81;;;0.46;80.20
19761;BME280;10039;42.632;23.408;2023-12-20T01:43:23;95278.13;;;0.48;80.32
19761;BME280;10039;42.632;23.408;2023-12-20T01:45:49;95283.28;;;0.60;80.16
19761;BME280;10039;42.632;23.408;2023-12-20T01:48:15;95271.59;;;0.57;79.77
19761;BME280;10039;42.632;23.408;2023-12-20T01:50:42;95257.13;;;0.32;79.60
19761;BME280;10039;42.632;23.408;2023-12-20T01:53:10;95270.16;;;0.60;80.11
19761;BME280;10039;42.632;23.408;2023-12-20T01:55:39;95257.47;;;0.46;79.63
19761;BME280;10039;42.632;23.408;2023-12-20T01:58:06;95253.56;;;0.40;79.85
19761;BME280;10039;42.632;23.408;2023-12-20T02:00:33;95239.69;;;0.24;79.83
19761;BME280;10039;42.632;23.408;2023-12-20T02:03:02;95233.94;;;0.03;79.67
19761;BME280;10039;42.632;23.408;2023-12-20T02:05:29;95269.59;;;-0.07;80.04
19761;BME280;10039;42.632;23.408;2023-12-20T02:07:55;95243.97;;;-0.14;81.20
19761;BME280;10039;42.632;23.408;2023-12-20T02:10:20;95233.88;;;0.15;81.08
19761;BME280;10039;42.632;23.408;2023-12-20T02:12:46;95245.53;;;0.49;80.53
19761;BME280;10039;42.632;23.408;2023-12-20T02:15:12;95244.84;;;0.52;80.15
19761;BME280;10039;42.632;23.408;2023-12-20T02:17:38;95242.72;;;0.57;80.03
19761;BME280;10039;42.632;23.408;2023-12-20T02:20:05;95209.81;;;0.29;79.53
19761;BME280;10039;42.632;23.408;2023-12-20T02:22:31;95237.59;;;0.45;79.40
19761;BME280;10039;42.632;23.408;2023-12-20T02:24:57;95242.13;;;0.33;79.42
19761;BME280;10039;42.632;23.408;2023-12-20T02:27:23;95234.78;;;0.38;79.95
19761;BME280;10039;42.632;23.408;2023-12-20T02:29:49;95218.03;;;0.27;79.90
19761;BME280;10039;42.632;23.408;2023-12-20T02:32:17;95214.78;;;0.18;79.81
19761;BME280;10039;42.632;23.408;2023-12-20T02:34:43;95224.09;;;0.00;80.17
19761;BME280;10039;42.632;23.408;2023-12-20T02:37:08;95228.44;;;0.24;80.75
19761;BME280;10039;42.632;23.408;2023-12-20T02:39:34;95217.34;;;0.30;80.65
19761;BME280;10039;42.632;23.408;2023-12-20T02:41:59;95216.50;;;0.26;80.06
19761;BME280;10039;42.632;23.408;2023-12-20T02:44:25;95218.69;;;0.24;80.50
19761;BME280;10039;42.632;23.408;2023-12-20T02:46:50;95216.06;;;0.24;80.53
19761;BME280;10039;42.632;23.408;2023-12-20T02:49:16;95212.09;;;0.30;80.67
19761;BME280;10039;42.632;23.408;2023-12-20T02:51:41;95222.66;;;0.34;80.73
19761;BME280;10039;42.632;23.408;2023-12-20T02:54:07;95207.69;;;0.34;80.74
19761;BME280;10039;42.632;23.408;2023-12-20T02:56:33;95202.94;;;0.24;80.38
19761;BME280;10039;42.632;23.408;2023-12-20T02:58:59;95201.66;;;0.34;80.21
19761;BME280;10039;42.632;23.408;2023-12-20T03:01:24;95201.09;;;0.40;80.16
19761;BME280;10039;42.632;23.408;2023-12-20T03:03:50;95219.47;;;0.40;80.26
19761;BME280;10039;42.632;23.408;2023-12-20T03:06:17;95208.97;;;0.25;79.95
19761;BME280;10039;42.632;23.408;2023-12-20T03:08:44;95203.88;;;0.16;79.91
19761;BME280;10039;42.632;23.408;2023-12-20T03:11:09;95206.34;;;0.09;80.62
19761;BME280;10039;42.632;23.408;2023-12-20T03:13:35;95214.13;;;0.06;80.48
19761;BME280;10039;42.632;23.408;2023-12-20T03:16:00;95198.38;;;-0.09;80.60
19761;BME280;10039;42.632;23.408;2023-12-20T03:18:26;95201.78;;;0.06;81.03
19761;BME280;10039;42.632;23.408;2023-12-20T03:20:53;95194.16;;;0.01;81.32
19761;BME280;10039;42.632;23.408;2023-12-20T03:23:18;95203.63;;;0.21;81.76
19761;BME280;10039;42.632;23.408;2023-12-20T03:25:44;95205.16;;;0.22;81.64
19761;BME280;10039;42.632;23.408;2023-12-20T03:28:09;95210.56;;;0.14;81.67
19761;BME280;10039;42.632;23.408;2023-12-20T03:30:35;95203.47;;;0.14;81.62
19761;BME280;10039;42.632;23.408;2023-12-20T03:33:00;95197.13;;;0.15;81.91
19761;BME280;10039;42.632;23.408;2023-12-20T03:35:26;95195.00;;;0.21;82.12
19761;BME280;10039;42.632;23.408;2023-12-20T03:37:51;95198.25;;;0.14;82.31
19761;BME280;10039;42.632;23.408;2023-12-20T03:40:17;95184.03;;;0.15;82.13
19761;BME280;10039;42.632;23.408;2023-12-20T03:42:42;95191.97;;;0.19;82.61
19761;BME280;10039;42.632;23.408;2023-12-20T03:45:08;95193.50;;;0.04;82.72
19761;BME280;10039;42.632;23.408;2023-12-20T03:47:34;95194.59;;;0.03;83.05
19761;BME280;10039;42.632;23.408;2023-12-20T03:49:59;95186.28;;;0.01;83.40
19761;BME280;10039;42.632;23.408;2023-12-20T03:52:25;95186.66;;;0.00;83.83
19761;BME280;10039;42.632;23.408;2023-12-20T03:54:50;95203.63;;;-0.09;84.31
19761;BME280;10039;42.632;23.408;2023-12-20T03:57:16;95189.94;;;0.12;84.34
19761;BME280;10039;42.632;23.408;2023-12-20T03:59:42;95172.50;;;0.20;83.83
19761;BME280;10039;42.632;23.408;2023-12-20T04:02:07;95140.38;;;-0.23;83.56
19761;BME280;10039;42.632;23.408;2023-12-20T04:04:32;95141.72;;;0.01;83.48
19761;BME280;10039;42.632;23.408;2023-12-20T04:06:58;95165.25;;;0.13;83.00
19761;BME280;10039;42.632;23.408;2023-12-20T04:09:24;95158.91;;;-0.01;82.56
19761;BME280;10039;42.632;23.408;2023-12-20T04:11:52;95172.50;;;0.04;82.48
19761;BME280;10039;42.632;23.408;2023-12-20T04:14:18;95169.66;;;-0.06;82.56
19761;BME280;10039;42.632;23.408;2023-12-20T04:16:43;95154.34;;;-0.04;82.93
19761;BME280;10039;42.632;23.408;2023-12-20T04:19:09;95159.16;;;0.09;83.04
19761;BME280;10039;42.632;23.408;2023-12-20T04:21:34;95171.59;;;0.12;82.76
19761;BME280;10039;42.632;23.408;2023-12-20T04:24:00;95162.69;;;-0.14;82.80
19761;BME280;10039;42.632;23.408;2023-12-20T04:26:25;95158.78;;;-0.20;83.09
19761;BME280;10039;42.632;23.408;2023-12-20T04:28:51;95151.53;;;-0.26;83.12
19761;BME280;10039;42.632;23.408;2023-12-20T04:31:16;95152.72;;;-0.08;83.79
19761;BME280;10039;42.632;23.408;2023-12-20T04:33:42;95151.97;;;-0.09;83.96
19761;BME280;10039;42.632;23.408;2023-12-20T04:36:08;95145.25;;;-0.06;83.59
19761;BME280;10039;42.632;23.408;2023-12-20T04:38:34;95141.22;;;-0.04;83.83
19761;BME280;10039;42.632;23.408;2023-12-20T04:41:00;95140.38;;;0.07;84.14
19761;BME280;10039;42.632;23.408;2023-12-20T04:43:25;95130.84;;;0.18;83.81
19761;BME280;10039;42.632;23.408;2023-12-20T04:45:51;95144.09;;;0.06;83.63
19761;BME280;10039;42.632;23.408;2023-12-20T04:48:16;95111.44;;;-0.27;83.47
19761;BME280;10039;42.632;23.408;2023-12-20T04:50:42;95132.56;;;-0.35;83.61
19761;BME280;10039;42.632;23.408;2023-12-20T04:53:07;95138.75;;;-0.28;84.27
19761;BME280;10039;42.632;23.408;2023-12-20T04:55:33;95132.84;;;-0.25;84.59
19761;BME280;10039;42.632;23.408;2023-12-20T04:57:59;95134.28;;;-0.27;85.11
19761;BME280;10039;42.632;23.408;2023-12-20T05:00:24;95130.31;;;-0.21;85.24
19761;BME280;10039;42.632;23.408;2023-12-20T05:02:50;95125.41;;;-0.23;85.05
19761;BME280;10039;42.632;23.408;2023-12-20T05:05:15;95132.59;;;-0.20;85.27
19761;BME280;10039;42.632;23.408;2023-12-20T05:07:43;95135.44;;;-0.09;85.85
19761;BME280;10039;42.632;23.408;2023-12-20T05:10:09;95114.06;;;-0.11;85.91
19761;BME280;10039;42.632;23.408;2023-12-20T05:12:34;95130.56;;;0.04;85.93
19761;BME280;10039;42.632;23.408;2023-12-20T05:15:00;95112.88;;;0.01;85.52
19761;BME280;10039;42.632;23.408;2023-12-20T05:17:25;95119.66;;;-0.13;86.05
19761;BME280;10039;42.632;23.408;2023-12-20T05:19:51;95121.06;;;-0.15;85.92
19761;BME280;10039;42.632;23.408;2023-12-20T05:22:17;95125.22;;;-0.14;86.34
19761;BME280;10039;42.632;23.408;2023-12-20T05:24:43;95104.66;;;-0.12;86.47
19761;BME280;10039;42.632;23.408;2023-12-20T05:27:10;95108.38;;;-0.13;86.59
19761;BME280;10039;42.632;23.408;2023-12-20T05:29:36;95070.59;;;-0.28;86.56
19761;BME280;10039;42.632;23.408;2023-12-20T05:32:02;95076.38;;;-0.22;86.80
19761;BME280;10039;42.632;23.408;2023-12-20T05:34:30;95104.16;;;-0.03;86.66
19761;BME280;10039;42.632;23.408;2023-12-20T05:36:56;95077.03;;;-0.10;86.47
19761;BME280;10039;42.632;23.408;2023-12-20T05:39:21;95100.44;;;-0.02;86.45
19761;BME280;10039;42.632;23.408;2023-12-20T05:41:47;95076.00;;;-0.05;86.23
19761;BME280;10039;42.632;23.408;2023-12-20T05:44:13;95098.47;;;0.11;86.08
19761;BME280;10039;42.632;23.408;2023-12-20T05:46:39;95092.16;;;-0.03;85.85
19761;BME280;10039;42.632;23.408;2023-12-20T05:49:05;95098.97;;;0.01;85.74
19761;BME280;10039;42.632;23.408;2023-12-20T05:51:31;95090.38;;;0.00;86.16
19761;BME280;10039;42.632;23.408;2023-12-20T05:53:56;95094.13;;;0.18;86.09
19761;BME280;10039;42.632;23.408;2023-12-20T05:56:24;95081.31;;;0.13;85.59
19761;BME280;10039;42.632;23.408;2023-12-20T05:58:50;95079.09;;;0.15;85.08
19761;BME280;10039;42.632;23.408;2023-12-20T06:01:16;95088.47;;;0.16;85.21
19761;BME280;10039;42.632;23.408;2023-12-20T06:03:44;95075.81;;;-0.12;85.03
19761;BME280;10039;42.632;23.408;2023-12-20T06:06:11;95069.66;;;-0.04;85.05
19761;BME280;10039;42.632;23.408;2023-12-20T06:08:38;95081.75;;;-0.15;85.01
19761;BME280;10039;42.632;23.408;2023-12-20T06:11:04;95077.78;;;-0.09;85.03
19761;BME280;10039;42.632;23.408;2023-12-20T06:13:30;95077.09;;;-0.06;84.82
19761;BME280;10039;42.632;23.408;2023-12-20T06:15:56;95089.03;;;-0.09;84.78
19761;BME280;10039;42.632;23.408;2023-12-20T06:18:24;95064.16;;;-0.15;84.96
19761;BME280;10039;42.632;23.408;2023-12-20T06:20:50;95076.00;;;-0.05;84.47
19761;BME280;10039;42.632;23.408;2023-12-20T06:23:16;95081.31;;;0.13;84.39
19761;BME280;10039;42.632;23.408;2023-12-20T06:25:41;95101.94;;;0.15;84.22
19761;BME280;10039;42.632;23.408;2023-12-20T06:28:07;95088.59;;;0.04;84.15
19761;BME280;10039;42.632;23.408;2023-12-20T06:30:33;95083.00;;;-0.09;84.35
19761;BME280;10039;42.632;23.408;2023-12-20T06:32:59;95088.25;;;0.06;84.46
19761;BME280;10039;42.632;23.408;2023-12-20T06:35:25;95085.59;;;0.21;84.17
19761;BME280;10039;42.632;23.408;2023-12-20T06:37:50;95092.28;;;0.19;84.11
19761;BME280;10039;42.632;23.408;2023-12-20T06:40:16;95085.38;;;-0.04;84.29
19761;BME280;10039;42.632;23.408;2023-12-20T06:42:42;95075.31;;;-0.03;84.71
19761;BME280;10039;42.632;23.408;2023-12-20T06:45:07;95075.25;;;-0.06;84.79
19761;BME280;10039;42.632;23.408;2023-12-20T06:47:33;95061.78;;;-0.04;85.21
19761;BME280;10039;42.632;23.408;2023-12-20T06:49:59;95055.75;;;0.10;84.73
19761;BME280;10039;42.632;23.408;2023-12-20T06:52:24;95078.94;;;0.08;85.01
19761;BME280;10039;42.632;23.408;2023-12-20T06:54:50;95042.06;;;0.01;84.77
19761;BME280;10039;42.632;23.408;2023-12-20T06:57:16;95052.63;;;0.05;84.29
19761;BME280;10039;42.632;23.408;2023-12-20T06:59:44;95063.03;;;0.01;84.32
19761;BME280;10039;42.632;23.408;2023-12-20T07:02:09;95044.56;;;-0.21;84.93
19761;BME280;10039;42.632;23.408;2023-12-20T07:04:39;95073.03;;;0.11;84.68
19761;BME280;10039;42.632;23.408;2023-12-20T07:07:05;95044.91;;;0.12;84.49
19761;BME280;10039;42.632;23.408;2023-12-20T07:09:32;95051.19;;;0.07;84.61
19761;BME280;10039;42.632;23.408;2023-12-20T07:11:58;95041.22;;;-0.03;85.00
19761;BME280;10039;42.632;23.408;2023-12-20T07:14:24;95045.94;;;0.07;85.22
19761;BME280;10039;42.632;23.408;2023-12-20T07:16:49;95022.78;;;0.09;85.35
19761;BME280;10039;42.632;23.408;2023-12-20T07:19:15;95051.63;;;0.09;85.50
19761;BME280;10039;42.632;23.408;2023-12-20T07:21:40;95046.47;;;-0.03;85.75
19761;BME280;10039;42.632;23.408;2023-12-20T07:24:06;95047.25;;;-0.02;86.20
19761;BME280;10039;42.632;23.408;2023-12-20T07:26:31;95046.78;;;0.11;86.63
19761;BME280;10039;42.632;23.408;2023-12-20T07:28:57;95038.38;;;0.21;87.01
19761;BME280;10039;42.632;23.408;2023-12-20T07:31:24;95007.16;;;0.16;87.03
19761;BME280;10039;42.632;23.408;2023-12-20T07:33:49;95029.91;;;0.28;86.57
19761;BME280;10039;42.632;23.408;2023-12-20T07:36:15;95008.28;;;0.15;86.03
19761;BME280;10039;42.632;23.408;2023-12-20T07:38:40;95038.41;;;0.40;86.59
19761;BME280;10039;42.632;23.408;2023-12-20T07:41:11;95034.69;;;0.41;86.34
19761;BME280;10039;42.632;23.408;2023-12-20T07:43:37;95041.72;;;0.56;86.53
19761;BME280;10039;42.632;23.408;2023-12-20T07:46:07;95036.13;;;0.58;86.24
19761;BME280;10039;42.632;23.408;2023-12-20T07:48:34;95037.84;;;0.69;86.07
19761;BME280;10039;42.632;23.408;2023-12-20T07:51:01;95031.41;;;0.48;85.88
19761;BME280;10039;42.632;23.408;2023-12-20T07:53:26;95022.22;;;0.57;86.02
19761;BME280;10039;42.632;23.408;2023-12-20T07:55:52;95033.75;;;0.72;86.08
19761;BME280;10039;42.632;23.408;2023-12-20T07:58:18;95013.94;;;0.36;85.52
19761;BME280;10039;42.632;23.408;2023-12-20T08:00:44;95036.88;;;0.39;86.09
19761;BME280;10039;42.632;23.408;2023-12-20T08:03:09;95033.31;;;0.47;86.32
19761;BME280;10039;42.632;23.408;2023-12-20T08:05:35;95021.53;;;0.60;86.17
19761;BME280;10039;42.632;23.408;2023-12-20T08:08:01;95032.75;;;0.76;86.33
19761;BME280;10039;42.632;23.408;2023-12-20T08:10:26;95017.78;;;0.80;85.99
19761;BME280;10039;42.632;23.408;2023-12-20T08:12:58;95018.19;;;0.82;85.73
19761;BME280;10039;42.632;23.408;2023-12-20T08:15:23;95004.59;;;0.96;85.62
19761;BME280;10039;42.632;23.408;2023-12-20T08:17:49;94993.78;;;0.78;85.32
19761;BME280;10039;42.632;23.408;2023-12-20T08:20:16;94994.97;;;0.84;85.27
19761;BME280;10039;42.632;23.408;2023-12-20T08:22:42;95008.41;;;0.79;85.21
19761;BME280;10039;42.632;23.408;2023-12-20T08:25:10;94999.06;;;0.82;85.14
19761;BME280;10039;42.632;23.408;2023-12-20T08:27:40;95011.97;;;0.90;85.67
19761;BME280;10039;42.632;23.408;2023-12-20T08:30:06;94998.38;;;0.85;85.16
19761;BME280;10039;42.632;23.408;2023-12-20T08:32:33;94977.00;;;0.86;84.88
19761;BME280;10039;42.632;23.408;2023-12-20T08:34:58;94974.97;;;0.76;84.71
19761;BME280;10039;42.632;23.408;2023-12-20T08:37:24;94985.06;;;0.74;84.53
19761;BME280;10039;42.632;23.408;2023-12-20T08:39:49;94982.44;;;0.74;84.75
19761;BME280;10039;42.632;23.408;2023-12-20T08:42:15;94980.50;;;0.71;85.14
19761;BME280;10039;42.632;23.408;2023-12-20T08:44:40;94963.06;;;0.60;85.34
19761;BME280;10039;42.632;23.408;2023-12-20T08:47:06;94960.19;;;0.68;85.70
19761;BME280;10039;42.632;23.408;2023-12-20T08:49:31;94983.88;;;0.91;85.78
19761;BME280;10039;42.632;23.408;2023-12-20T08:51:57;94975.28;;;0.94;85.42
19761;BME280;10039;42.632;23.408;2023-12-20T08:54:22;94939.09;;;0.42;84.82
19761;BME280;10039;42.632;23.408;2023-12-20T08:56:48;94947.00;;;0.65;85.15
19761;BME280;10039;42.632;23.408;2023-12-20T08:59:13;94972.66;;;0.94;85.61
19761;BME280;10039;42.632;23.408;2023-12-20T09:01:39;94968.94;;;0.95;85.49
19761;BME280;10039;42.632;23.408;2023-12-20T09:04:05;94963.31;;;0.96;85.13
19761;BME280;10039;42.632;23.408;2023-12-20T09:06:31;94951.41;;;1.02;85.12
19761;BME280;10039;42.632;23.408;2023-12-20T09:08:57;94942.22;;;1.15;85.27
19761;BME280;10039;42.632;23.408;2023-12-20T09:11:22;94901.50;;;1.02;85.21
19761;BME280;10039;42.632;23.408;2023-12-20T09:13:48;94921.81;;;1.27;84.81
19761;BME280;10039;42.632;23.408;2023-12-20T09:16:13;94917.00;;;1.33;84.69
19761;BME280;10039;42.632;23.408;2023-12-20T09:18:41;94914.06;;;1.38;84.08
19761;BME280;10039;42.632;23.408;2023-12-20T09:21:06;94909.00;;;1.52;84.56
19761;BME280;10039;42.632;23.408;2023-12-20T09:23:32;94903.09;;;1.58;84.02
19761;BME280;10039;42.632;23.408;2023-12-20T09:25:57;94889.03;;;1.47;83.55
19761;BME280;10039;42.632;23.408;2023-12-20T09:28:23;94886.13;;;1.26;83.64
19761;BME280;10039;42.632;23.408;2023-12-20T09:30:48;94882.81;;;1.07;84.07
19761;BME280;10039;42.632;23.408;2023-12-20T09:33:14;94877.63;;;1.10;84.18
19761;BME280;10039;42.632;23.408;2023-12-20T09:35:39;94864.59;;;1.17;84.87
19761;BME280;10039;42.632;23.408;2023-12-20T09:38:05;94860.38;;;1.13;84.79
19761;BME280;10039;42.632;23.408;2023-12-20T09:40:32;94862.84;;;1.28;84.90
19761;BME280;10039;42.632;23.408;2023-12-20T09:43:09;94861.25;;;1.20;84.87
19761;BME280;10039;42.632;23.408;2023-12-20T09:45:36;94861.41;;;1.31;84.90
19761;BME280;10039;42.632;23.408;2023-12-20T09:48:03;94845.25;;;1.03;85.00
19761;BME280;10039;42.632;23.408;2023-12-20T09:50:30;94809.00;;;0.64;86.05
19761;BME280;10039;42.632;23.408;2023-12-20T09:52:58;94841.41;;;0.97;86.23
19761;BME280;10039;42.632;23.408;2023-12-20T09:55:25;94828.00;;;1.06;86.62
19761;BME280;10039;42.632;23.408;2023-12-20T09:57:50;94843.34;;;1.29;85.81
19761;BME280;10039;42.632;23.408;2023-12-20T10:00:16;94842.31;;;1.34;86.12
19761;BME280;10039;42.632;23.408;2023-12-20T10:02:57;94833.88;;;1.51;86.37
19761;BME280;10039;42.632;23.408;2023-12-20T10:05:31;94825.69;;;1.56;85.78
19761;BME280;10039;42.632;23.408;2023-12-20T10:07:57;94808.50;;;1.62;86.00
19761;BME280;10039;42.632;23.408;2023-12-20T10:10:23;94807.94;;;1.79;85.27
19761;BME280;10039;42.632;23.408;2023-12-20T10:13:07;94817.91;;;1.96;85.10
19761;BME280;10039;42.632;23.408;2023-12-20T10:15:34;94807.78;;;1.98;84.61
19761;BME280;10039;42.632;23.408;2023-12-20T10:18:01;94801.56;;;1.80;84.07
19761;BME280;10039;42.632;23.408;2023-12-20T10:20:27;94790.44;;;1.93;83.79
19761;BME280;10039;42.632;23.408;2023-12-20T10:22:55;94789.28;;;1.91;83.57
19761;BME280;10039;42.632;23.408;2023-12-20T10:25:21;94786.34;;;1.96;83.28
19761;BME280;10039;42.632;23.408;2023-12-20T10:27:47;94783.38;;;2.01;83.35
19761;BME280;10039;42.632;23.408;2023-12-20T10:30:13;94772.16;;;2.07;83.52
19761;BME280;10039;42.632;23.408;2023-12-20T10:32:40;94785.88;;;2.23;83.70
19761;BME280;10039;42.632;23.408;2023-12-20T10:35:06;94774.38;;;2.02;82.94
19761;BME280;10039;42.632;23.408;2023-12-20T10:37:36;94766.53;;;2.09;83.29
19761;BME280;10039;42.632;23.408;2023-12-20T10:40:04;94775.19;;;2.09;83.50
19761;BME280;10039;42.632;23.408;2023-12-20T10:42:31;94767.03;;;2.21;83.07
19761;BME280;10039;42.632;23.408;2023-12-20T10:44:59;94761.94;;;2.38;83.17
19761;BME280;10039;42.632;23.408;2023-12-20T10:47:25;94754.69;;;2.28;83.04
19761;BME280;10039;42.632;23.408;2023-12-20T10:49:54;94748.03;;;2.41;82.83
19761;BME280;10039;42.632;23.408;2023-12-20T10:52:23;94737.72;;;2.22;82.89
19761;BME280;10039;42.632;23.408;2023-12-20T10:54:48;94723.78;;;2.18;83.56
19761;BME280;10039;42.632;23.408;2023-12-20T10:57:15;94745.34;;;2.34;83.69
19761;BME280;10039;42.632;23.408;2023-12-20T10:59:43;94731.81;;;2.36;83.34
19761;BME280;10039;42.632;23.408;2023-12-20T11:02:11;94742.50;;;2.53;83.35
19761;BME280;10039;42.632;23.408;2023-12-20T11:07:35;94717.47;;;2.26;82.87
19761;BME280;10039;42.632;23.408;2023-12-20T11:10:14;94714.06;;;2.26;83.02
19761;BME280;10039;42.632;23.408;2023-12-20T11:13:05;94703.84;;;2.17;83.65
19761;BME280;10039;42.632;23.408;2023-12-20T11:15:35;94705.47;;;2.32;83.62
19761;BME280;10039;42.632;23.408;2023-12-20T11:18:03;94704.03;;;2.42;83.82
19761;BME280;10039;42.632;23.408;2023-12-20T11:20:39;94699.50;;;2.35;83.48
19761;BME280;10039;42.632;23.408;2023-12-20T11:23:06;94685.81;;;2.19;83.27
19761;BME280;10039;42.632;23.408;2023-12-20T11:25:54;94681.41;;;2.30;83.93
19761;BME280;10039;42.632;23.408;2023-12-20T11:28:24;94674.03;;;2.53;84.07
19761;BME280;10039;42.632;23.408;2023-12-20T11:30:54;94677.34;;;2.43;84.44
19761;BME280;10039;42.632;23.408;2023-12-20T11:33:31;94664.81;;;2.26;83.66
19761;BME280;10039;42.632;23.408;2023-12-20T11:35:58;94668.50;;;2.18;84.44
19761;BME280;10039;42.632;23.408;2023-12-20T11:38:25;94647.19;;;2.30;84.24
19761;BME280;10039;42.632;23.408;2023-12-20T11:40:51;94651.00;;;2.40;83.75
19761;BME280;10039;42.632;23.408;2023-12-20T11:43:38;94650.00;;;2.58;83.50
19761;BME280;10039;42.632;23.408;2023-12-20T11:48:31;94638.69;;;2.58;83.47
19761;BME280;10039;42.632;23.408;2023-12-20T11:50:57;94622.78;;;2.37;83.51
19761;BME280;10039;42.632;23.408;2023-12-20T11:53:22;94627.28;;;2.36;84.29
19761;BME280;10039;42.632;23.408;2023-12-20T11:55:51;94619.34;;;2.33;84.20
19761;BME280;10039;42.632;23.408;2023-12-20T11:58:16;94614.16;;;2.43;84.77
19761;BME280;10039;42.632;23.408;2023-12-20T12:00:42;94610.84;;;2.53;84.31
19761;BME280;10039;42.632;23.408;2023-12-20T12:03:08;94605.88;;;2.41;84.11
19761;BME280;10039;42.632;23.408;2023-12-20T12:05:34;94575.97;;;2.06;84.59
19761;BME280;10039;42.632;23.408;2023-12-20T12:08:01;94613.38;;;2.36;84.44
19761;BME280;10039;42.632;23.408;2023-12-20T12:10:27;94581.81;;;2.43;84.76
19761;BME280;10039;42.632;23.408;2023-12-20T12:12:53;94592.00;;;2.48;84.50
19761;BME280;10039;42.632;23.408;2023-12-20T12:15:19;94581.13;;;2.53;84.34
19761;BME280;10039;42.632;23.408;2023-12-20T12:17:52;94561.16;;;2.48;84.21
19761;BME280;10039;42.632;23.408;2023-12-20T12:20:20;94568.72;;;2.53;84.11
19761;BME280;10039;42.632;23.408;2023-12-20T12:22:45;94537.81;;;2.40;83.57
19761;BME280;10039;42.632;23.408;2023-12-20T12:25:16;94559.69;;;2.51;84.18
19761;BME280;10039;42.632;23.408;2023-12-20T12:27:41;94567.19;;;2.56;84.31
19761;BME280;10039;42.632;23.408;2023-12-20T12:30:08;94563.50;;;2.67;84.40
19761;BME280;10039;42.632;23.408;2023-12-20T12:32:35;94567.28;;;2.73;84.47
19761;BME280;10039;42.632;23.408;2023-12-20T12:35:05;94557.91;;;2.76;84.57
19761;BME280;10039;42.632;23.408;2023-12-20T12:37:34;94519.09;;;2.62;84.14
19761;BME280;10039;42.632;23.408;2023-12-20T12:40:00;94548.09;;;2.76;84.00
19761;BME280;10039;42.632;23.408;2023-12-20T12:42:25;94507.78;;;2.62;83.98
19761;BME280;10039;42.632;23.408;2023-12-20T12:44:54;94534.91;;;2.62;83.75
19761;BME280;10039;42.632;23.408;2023-12-20T12:47:21;94523.63;;;2.65;83.92
19761;BME280;10039;42.632;23.408;2023-12-20T12:49:47;94501.03;;;2.68;83.32
19761;BME280;10039;42.632;23.408;2023-12-20T12:52:13;94540.28;;;3.01;83.16
19761;BME280;10039;42.632;23.408;2023-12-20T12:54:38;94535.00;;;2.97;82.37
19761;BME280;10039;42.632;23.408;2023-12-20T12:57:04;94489.72;;;2.57;83.12
19761;BME280;10039;42.632;23.408;2023-12-20T12:59:29;94531.97;;;2.88;83.67